SBCTSBLO

Guest
Details From SBCT - Afonso Pena
To SBLO - Londrina
Flight Number -
Tags generated
Created
Modified
Stats Distance 170 nm / 315 km
Max Altitude 14,200 ft / 4,328 m
Waypoints 5
Social Downloads 0
Likes 0
Share VATSIM

Download

Looking for another format? Having issues loading an existing format? Contact us
Advertisement - Login to hide

Notes

Basic altitude profile: - Ascent Rate: 2500ft/min - Ascent Speed: 250kts - Cruise Altitude: 35000ft - Cruise Speed: 420kts - Descent Rate: 1500ft/min - Descent Speed: 250kts Options: - Use NATs: yes - Use PACOTS: yes - Use low airways: yes - Use high airways: yes

Route

SBCT ELOSA W26 LON SBLO

ID Type Via Altitude Latitude Longitude Leg Dist Tot Dist Heading (true) Name
O SBCT APT - 0 ft / 0 m -25.52888˚ -49.17306˚ - 0 nm - Afonso Pena
ELOSA FIX - 14,200 ft / 4,328 m -25.01350˚ -49.63667˚ 39 nm 39 nm 321° / 321° -
JAVAN FIX W26 (AWY-LO) 8,800 ft / 2,682 m -23.86100˚ -50.65817˚ 88 nm 128 nm 321° / 321° -
LON VOR W26 (AWY-LO) 7,500 ft / 2,286 m -23.33951˚ -51.11253˚ 40 nm 168 nm 321° / 321° LONDRINA VOR-DME
O SBLO APT - 0 ft / 0 m -23.33362˚ -51.13007˚ 1 nm 169 nm 290° / 290° Londrina

Altitude Profile

Advertisement - Login to hide

Weather


0- 5 10 15 20 25 30 35+ Temperature / ° C

Clouds and Precipitation
Forecast for 2017-12-12 18:00 UTC. Updated an hour ago

Ground ~20,000 ft ~40,000 ft Winds

SBCT

Details ICAO SBCT (CWB)
Name Afonso Pena
Region Brazil
Timezone America/Sao_Paulo (UTC-2.0)
Stats Elevation 2,988 ft / 911 m (AMSL)
Location -25.528885° -49.173062°
Runways 2
Magnetic Variation 19.612° W

METAR

SBCT 121800Z 12009KT 9999 BKN009 OVC013 16/13 Q1020

Decode

TAF

TAF SBCT 121400Z 1218/1318 11010KT 9999 BKN015 TN12/1307Z TX25/1317Z BECMG 1222/1224 04005KT 8000 BKN006 BECMG 1312/1314 SCT025 RMK PEB

Decode

Departure Runways

ID Width Length Bearing (true) Bearing (mag) Surface Threshold Offset Overrun Length
11 148 ft / 45 m 5,909 ft / 1,801 m 91.79° 111.40° Asphalt 0 ft / 0 m 0 ft / 0 m
15 148 ft / 45 m 7,290 ft / 2,222 m 134.76° 154.37° Asphalt 0 ft / 0 m 190 ft / 58 m
29 148 ft / 45 m 5,909 ft / 1,801 m 271.78° 291.39° Asphalt 0 ft / 0 m 0 ft / 0 m
33 148 ft / 45 m 7,290 ft / 2,222 m 314.75° 334.36° Asphalt 0 ft / 0 m 185 ft / 56 m

SBLO

Details ICAO SBLO (LDB)
Name Londrina
Region Brazil
Timezone America/Sao_Paulo (UTC-2.0)
Stats Elevation 1,867 ft / 569 m (AMSL)
Location -23.333624° -51.130072°
Runways 1
Magnetic Variation 19.073° W

METAR

SBLO 121800Z 10012KT CAVOK 30/17 Q1014

Decode

TAF

TAF TAF SBLO 121400Z 1218/1306 11012KT CAVOK TX33/1218Z TN17/1305Z RMK PEB

Decode

Destination Runways

ID Width Length Bearing (true) Bearing (mag) Surface Threshold Offset Overrun Length
13 148 ft / 45 m 6,926 ft / 2,111 m 110.29° 129.36° Asphalt 975 ft / 297 m 0 ft / 0 m
31 148 ft / 45 m 6,926 ft / 2,111 m 290.28° 309.35° Asphalt 0 ft / 0 m 100 ft / 30 m

Popular Alternatives